createdAt,value
2023-04-07T00:06:49.949Z,44.82
2023-04-07T00:09:23.343Z,44.91
2023-04-07T00:11:57.022Z,45.01
2023-04-07T00:14:30.212Z,45.08
2023-04-07T00:17:03.969Z,45.07
2023-04-07T00:19:37.321Z,45.19
2023-04-07T00:22:12.947Z,45.14
2023-04-07T00:35:23.906Z,45.70
2023-04-07T00:37:59.147Z,45.73
2023-04-07T00:40:32.938Z,45.56
2023-04-07T00:43:06.153Z,45.68
2023-04-07T00:45:39.955Z,45.70
2023-04-07T00:48:13.295Z,45.65
2023-04-07T01:01:14.913Z,45.80
2023-04-07T01:04:07.492Z,45.87
2023-04-07T01:06:50.880Z,46.14
2023-04-07T01:09:48.958Z,46.08
2023-04-07T01:12:35.835Z,46.17
2023-04-07T01:29:42.973Z,46.46
2023-04-07T01:32:19.523Z,46.44
2023-04-07T01:35:03.947Z,46.39
2023-04-07T01:37:38.393Z,46.37
2023-04-07T01:40:15.887Z,46.52
2023-04-07T01:42:50.773Z,46.53
2023-04-07T01:55:41.901Z,46.65
2023-04-07T01:58:21.914Z,46.62
2023-04-07T02:00:56.438Z,46.73
2023-04-07T02:03:38.101Z,46.71
2023-04-07T02:06:16.893Z,46.65
2023-04-07T02:22:44.944Z,47.05
2023-04-07T02:25:23.251Z,46.93
2023-04-07T02:28:04.917Z,47.25
2023-04-07T02:30:38.237Z,47.09
2023-04-07T02:33:11.914Z,47.37
2023-04-07T02:49:39.059Z,47.49
2023-04-07T02:52:06.485Z,47.56
2023-04-07T02:54:46.905Z,47.26
2023-04-07T02:57:23.924Z,47.43
2023-04-07T03:00:07.938Z,47.54
2023-04-07T03:03:00.248Z,47.23
2023-04-07T03:16:00.876Z,47.49
2023-04-07T03:18:50.589Z,47.40
2023-04-07T03:21:24.448Z,47.48
2023-04-07T03:23:57.918Z,47.51
2023-04-07T03:26:31.182Z,47.48
2023-04-07T03:42:47.047Z,47.48
2023-04-07T03:45:20.350Z,47.76
2023-04-07T03:47:56.003Z,47.66
2023-04-07T03:50:30.002Z,47.63
2023-04-07T03:53:23.917Z,47.64
2023-04-07T03:55:58.808Z,47.86
2023-04-07T04:09:21.860Z,47.87
2023-04-07T04:12:01.891Z,47.93
2023-04-07T04:14:41.762Z,48.11
2023-04-07T04:17:24.041Z,48.01
2023-04-07T04:19:57.136Z,48.02
2023-04-07T04:22:45.000Z,48.10
2023-04-07T04:35:57.929Z,47.98
2023-04-07T04:38:31.487Z,47.93
2023-04-07T04:41:11.884Z,48.03
2023-04-07T04:43:45.283Z,47.92
2023-04-07T04:46:30.087Z,47.78
2023-04-07T05:03:07.074Z,48.07
2023-04-07T05:05:53.894Z,48.11
2023-04-07T05:08:27.265Z,47.85
2023-04-07T05:11:00.887Z,47.85
2023-04-07T05:13:35.203Z,47.93
2023-04-07T05:16:11.933Z,47.78
2023-04-07T05:18:47.641Z,47.82
2023-04-07T05:28:12.984Z,48.36
2023-04-07T05:30:48.086Z,48.43
2023-04-07T05:33:21.888Z,48.30
2023-04-07T05:35:57.627Z,48.41
2023-04-07T05:38:30.895Z,48.25
2023-04-07T05:41:11.472Z,48.32
2023-04-07T05:43:52.125Z,48.12
2023-04-07T05:54:29.870Z,47.25
2023-04-07T05:57:13.904Z,47.92
2023-04-07T05:59:48.985Z,47.97
2023-04-07T06:02:22.077Z,48.16
2023-04-07T06:04:55.275Z,48.50
2023-04-07T06:07:28.905Z,48.79
2023-04-07T06:21:22.892Z,49.33
2023-04-07T06:23:56.254Z,49.42
2023-04-07T06:26:29.910Z,49.52
2023-04-07T06:29:03.304Z,49.52
2023-04-07T06:31:36.960Z,49.71
2023-04-07T06:34:10.115Z,49.62
2023-04-07T06:36:46.680Z,49.79
2023-04-07T06:49:56.878Z,49.23
2023-04-07T06:52:32.084Z,49.19
2023-04-07T06:55:06.625Z,49.12
2023-04-07T06:57:40.125Z,48.89
2023-04-07T07:00:15.927Z,48.79
2023-04-07T07:02:57.121Z,49.00
2023-04-07T07:15:54.891Z,47.80
2023-04-07T07:18:34.904Z,47.87
2023-04-07T07:21:08.761Z,47.90
2023-04-07T07:23:41.862Z,48.17
2023-04-07T07:26:15.117Z,48.26
2023-04-07T07:28:48.861Z,48.36
2023-04-07T07:42:00.932Z,48.61
2023-04-07T07:44:34.118Z,48.54
2023-04-07T07:47:07.861Z,48.99
2023-04-07T07:49:41.085Z,49.24
2023-04-07T07:52:14.893Z,48.86
2023-04-07T07:54:48.955Z,49.01
2023-04-07T07:57:25.032Z,48.84
2023-04-07T08:10:34.861Z,48.93
2023-04-07T08:13:10.710Z,48.79
2023-04-07T08:15:45.861Z,49.01
2023-04-07T08:18:19.116Z,49.25
2023-04-07T08:20:52.866Z,49.38
2023-04-07T08:23:26.117Z,49.36
2023-04-07T08:36:16.816Z,48.50
2023-04-07T08:38:57.518Z,48.64
2023-04-07T08:41:38.727Z,48.80
2023-04-07T08:44:20.869Z,48.91
2023-04-07T08:46:59.341Z,49.37
2023-04-07T09:03:23.147Z,49.14
2023-04-07T09:05:57.269Z,49.09
2023-04-07T09:08:33.825Z,49.27
2023-04-07T09:11:07.165Z,48.80
2023-04-07T09:13:40.831Z,48.72
2023-04-07T09:16:14.755Z,49.36
2023-04-07T09:18:49.849Z,49.17
2023-04-07T09:28:47.826Z,48.76
2023-04-07T09:31:27.907Z,49.13
2023-04-07T09:34:04.961Z,48.57
2023-04-07T09:36:47.833Z,48.81
2023-04-07T09:39:21.227Z,48.77
2023-04-07T09:41:54.931Z,48.83
2023-04-07T09:55:23.910Z,48.50
2023-04-07T09:57:57.839Z,48.65
2023-04-07T10:00:31.829Z,48.18
2023-04-07T10:03:07.251Z,48.14
2023-04-07T10:05:42.376Z,48.15
2023-04-07T10:08:16.475Z,48.60
2023-04-07T10:24:50.982Z,48.56
2023-04-07T10:27:32.783Z,48.45
2023-04-07T10:30:21.858Z,47.98
2023-04-07T10:33:02.245Z,47.51
2023-04-07T10:36:09.901Z,47.48
2023-04-07T10:49:26.830Z,47.29
2023-04-07T10:52:24.275Z,47.38
2023-04-07T10:55:39.860Z,47.23
2023-04-07T10:58:18.307Z,47.76
2023-04-07T11:01:25.868Z,48.35
2023-04-07T11:04:00.345Z,48.28
2023-04-07T11:16:50.801Z,48.86
2023-04-07T11:19:30.842Z,48.94
2023-04-07T11:22:30.020Z,49.27
2023-04-07T11:25:26.838Z,49.03
2023-04-07T11:28:00.170Z,48.50
2023-04-07T11:44:18.533Z,49.25
2023-04-07T11:46:57.414Z,49.24
2023-04-07T11:49:37.816Z,49.24
2023-04-07T11:52:11.180Z,48.93
2023-04-07T11:54:48.849Z,48.91
2023-04-07T11:57:26.217Z,48.50
2023-04-07T12:10:30.788Z,47.42
2023-04-07T12:13:10.854Z,47.27
2023-04-07T12:15:44.066Z,46.87
2023-04-07T12:18:21.859Z,47.17
2023-04-07T12:20:56.061Z,47.05
2023-04-07T12:23:29.811Z,47.01
2023-04-07T12:36:41.825Z,47.86
2023-04-07T12:39:15.804Z,47.57
2023-04-07T12:41:48.819Z,47.38
2023-04-07T12:44:22.081Z,48.04
2023-04-07T12:46:56.513Z,47.96
2023-04-07T13:03:34.091Z,48.01
2023-04-07T13:06:14.815Z,47.58
2023-04-07T13:08:48.039Z,47.77
2023-04-07T13:11:22.782Z,47.95
2023-04-07T13:13:57.946Z,48.12
2023-04-07T13:16:39.856Z,48.00
2023-04-07T13:19:15.068Z,46.67
2023-04-07T13:29:20.848Z,47.63
2023-04-07T13:32:04.291Z,47.20
2023-04-07T13:34:46.817Z,47.06
2023-04-07T13:37:20.059Z,46.75
2023-04-07T13:39:53.808Z,46.88
2023-04-07T13:42:27.169Z,46.42
2023-04-07T13:56:00.796Z,46.07
2023-04-07T13:58:42.809Z,46.25
2023-04-07T14:01:16.997Z,46.59
2023-04-07T14:03:51.010Z,46.33
2023-04-07T14:06:25.289Z,46.91
2023-04-07T14:08:58.821Z,46.88
2023-04-07T14:22:52.841Z,47.50
2023-04-07T14:25:26.051Z,47.50
2023-04-07T14:27:59.852Z,47.56
2023-04-07T14:30:35.958Z,47.81
2023-04-07T14:33:09.850Z,47.96
2023-04-07T14:35:43.119Z,48.21
2023-04-07T14:38:18.807Z,48.39
2023-04-07T14:51:28.810Z,49.35
2023-04-07T14:54:03.988Z,49.75
2023-04-07T14:56:37.916Z,49.98
2023-04-07T14:59:11.098Z,50.06
2023-04-07T15:01:44.848Z,50.04
2023-04-07T15:17:43.869Z,52.04
2023-04-07T15:20:24.985Z,52.23
2023-04-07T15:22:58.193Z,52.18
2023-04-07T15:25:31.816Z,52.17
2023-04-07T15:28:05.471Z,52.51
2023-04-07T15:30:38.829Z,52.60
2023-04-07T15:33:14.128Z,53.10
2023-04-07T15:43:06.238Z,53.32
2023-04-07T15:45:40.711Z,53.27
2023-04-07T15:48:13.831Z,53.30
2023-04-07T15:50:49.087Z,53.06
2023-04-07T15:53:22.829Z,53.24
2023-04-07T15:55:56.163Z,53.45
2023-04-07T15:58:29.886Z,53.09
2023-04-07T16:11:41.810Z,53.35
2023-04-07T16:14:15.027Z,53.19
2023-04-07T16:16:49.045Z,53.31
2023-04-07T16:19:22.074Z,53.26
2023-04-07T16:21:56.549Z,53.57
2023-04-07T16:38:33.782Z,54.50
2023-04-07T16:41:29.817Z,54.66
2023-04-07T16:44:03.177Z,54.92
2023-04-07T16:46:37.824Z,55.08
2023-04-07T16:49:11.124Z,55.11
2023-04-07T16:51:44.817Z,54.90
2023-04-07T16:54:19.983Z,55.33
2023-04-07T17:03:42.980Z,55.77
2023-04-07T17:06:17.059Z,55.80
2023-04-07T17:08:50.860Z,55.60
2023-04-07T17:11:26.021Z,55.87
2023-04-07T17:13:59.785Z,55.76
2023-04-07T17:16:33.285Z,56.14
2023-04-07T17:19:06.784Z,55.99
2023-04-07T17:32:18.816Z,56.15
2023-04-07T17:34:52.077Z,56.33
2023-04-07T17:37:25.817Z,56.55
2023-04-07T17:39:59.067Z,56.50
2023-04-07T17:42:32.804Z,56.54
2023-04-07T17:59:09.758Z,56.83
2023-04-07T18:01:49.828Z,56.86
2023-04-07T18:04:23.355Z,57.20
2023-04-07T18:06:57.468Z,57.09
2023-04-07T18:09:31.126Z,57.31
2023-04-07T18:12:04.779Z,57.17
2023-04-07T18:25:16.778Z,57.72
2023-04-07T18:27:50.055Z,57.97
2023-04-07T18:30:24.726Z,57.86
2023-04-07T18:32:58.061Z,57.68
2023-04-07T18:35:31.797Z,57.77
2023-04-07T18:38:05.201Z,58.16
2023-04-07T18:50:58.766Z,58.14
2023-04-07T18:53:38.781Z,58.19
2023-04-07T18:56:12.025Z,58.14
2023-04-07T18:58:45.797Z,58.28
2023-04-07T19:01:19.107Z,58.10
2023-04-07T19:03:53.212Z,58.39
2023-04-07T19:17:08.782Z,58.46
2023-04-07T19:19:42.076Z,58.40
2023-04-07T19:22:15.778Z,58.67
2023-04-07T19:24:49.034Z,58.71
2023-04-07T19:27:27.811Z,58.66
2023-04-07T19:30:01.149Z,58.76
2023-04-07T19:32:36.968Z,58.74
2023-04-07T19:45:46.781Z,58.61
2023-04-07T19:48:21.961Z,58.67
2023-04-07T19:50:55.774Z,58.62
2023-04-07T19:53:29.006Z,58.63
2023-04-07T19:56:02.788Z,58.86
2023-04-07T19:58:36.036Z,58.73
2023-04-07T20:11:26.735Z,58.95
2023-04-07T20:14:07.431Z,58.88
2023-04-07T20:16:41.022Z,59.16
2023-04-07T20:19:14.768Z,59.04
2023-04-07T20:21:48.166Z,59.24
2023-04-07T20:24:21.765Z,59.35
2023-04-07T20:37:41.727Z,59.19
2023-04-07T20:40:15.162Z,59.25
2023-04-07T20:42:48.771Z,59.26
2023-04-07T20:45:22.426Z,59.19
2023-04-07T20:47:57.396Z,59.10
2023-04-07T20:50:31.005Z,59.10
2023-04-07T20:53:06.770Z,59.19
2023-04-07T21:06:16.764Z,59.51
2023-04-07T21:08:51.982Z,59.45
2023-04-07T21:11:25.787Z,59.56
2023-04-07T21:14:05.914Z,59.14
2023-04-07T21:16:45.852Z,59.60
2023-04-07T21:19:19.038Z,59.71
2023-04-07T21:32:09.750Z,59.80
2023-04-07T21:34:49.745Z,59.82
2023-04-07T21:37:23.026Z,59.95
2023-04-07T21:40:00.700Z,60.16
2023-04-07T21:42:34.002Z,60.11
2023-04-07T21:58:49.940Z,60.02
2023-04-07T22:01:23.138Z,60.21
2023-04-07T22:03:56.844Z,60.27
2023-04-07T22:06:30.094Z,60.27
2023-04-07T22:09:04.014Z,60.36
2023-04-07T22:11:37.969Z,60.56
2023-04-07T22:14:13.742Z,60.40
2023-04-07T22:24:21.728Z,60.73
2023-04-07T22:27:01.764Z,60.61
2023-04-07T22:29:36.977Z,60.74
2023-04-07T22:32:10.797Z,60.79
2023-04-07T22:34:44.405Z,61.05
2023-04-07T22:37:17.757Z,60.76
2023-04-07T22:51:07.763Z,61.09
2023-04-07T22:53:41.036Z,61.10
2023-04-07T22:56:14.772Z,61.07
2023-04-07T22:58:48.501Z,60.89
2023-04-07T23:01:21.876Z,61.20
2023-04-07T23:03:55.039Z,61.22
2023-04-07T23:20:11.722Z,61.48
2023-04-07T23:22:50.633Z,61.45
2023-04-07T23:25:24.613Z,61.21
2023-04-07T23:27:57.982Z,61.65
2023-04-07T23:30:31.749Z,61.67
2023-04-07T23:33:05.176Z,61.63
2023-04-07T23:45:55.716Z,61.67
2023-04-07T23:48:36.889Z,61.99
2023-04-07T23:51:09.986Z,62.05
2023-04-07T23:53:43.720Z,61.97
2023-04-07T23:56:20.003Z,62.13
2023-04-07T23:58:53.717Z,62.23
